createdAt,value
2022-11-13T00:02:50.914Z,7.51
2022-11-13T00:08:10.943Z,7.12
2022-11-13T00:13:32.309Z,7.23
2022-11-13T00:18:52.733Z,7.41
2022-11-13T00:24:12.740Z,7.56
2022-11-13T00:29:33.046Z,7.58
2022-11-13T00:34:53.186Z,7.38
2022-11-13T00:40:13.580Z,7.31
2022-11-13T00:45:33.795Z,7.32
2022-11-13T00:50:54.252Z,7.10
2022-11-13T00:56:14.561Z,6.96
2022-11-13T01:01:34.813Z,6.70
2022-11-13T01:06:54.677Z,6.70
2022-11-13T01:12:14.653Z,6.80
2022-11-13T01:17:35.177Z,6.85
2022-11-13T01:22:55.179Z,6.94
2022-11-13T01:28:15.344Z,6.69
2022-11-13T01:33:35.944Z,6.47
2022-11-13T01:38:56.344Z,6.10
2022-11-13T01:44:18.791Z,6.22
2022-11-13T01:49:41.492Z,6.08
2022-11-13T01:55:10.766Z,6.10
2022-11-13T02:00:30.878Z,6.24
2022-11-13T02:05:51.599Z,6.23
2022-11-13T02:11:12.740Z,6.09
2022-11-13T02:16:35.897Z,6.05
2022-11-13T02:22:33.774Z,6.05
2022-11-13T02:27:54.077Z,6.18
2022-11-13T02:33:32.228Z,6.10
2022-11-13T02:38:54.256Z,6.07
2022-11-13T02:44:14.566Z,6.11
2022-11-13T02:49:34.902Z,5.90
2022-11-13T02:54:55.335Z,5.85
2022-11-13T03:00:16.166Z,6.00
2022-11-13T03:05:36.459Z,5.81
2022-11-13T03:10:56.552Z,5.51
2022-11-13T03:16:22.002Z,5.52
2022-11-13T03:21:43.224Z,5.45
2022-11-13T03:27:03.421Z,5.29
2022-11-13T03:32:23.718Z,5.09
2022-11-13T03:37:43.576Z,5.52
2022-11-13T03:43:03.750Z,5.82
2022-11-13T03:48:23.912Z,5.85
2022-11-13T03:53:44.133Z,5.71
2022-11-13T03:59:04.447Z,5.57
2022-11-13T04:04:24.797Z,5.59
2022-11-13T04:09:45.059Z,5.40
2022-11-13T04:15:06.024Z,5.14
2022-11-13T04:20:26.645Z,5.21
2022-11-13T04:25:48.868Z,5.31
2022-11-13T04:31:09.131Z,5.14
2022-11-13T04:36:29.224Z,5.27
2022-11-13T04:41:54.122Z,5.24
2022-11-13T04:47:15.357Z,5.17
2022-11-13T04:52:35.581Z,5.01
2022-11-13T04:57:55.765Z,4.84
2022-11-13T05:03:16.042Z,4.92
2022-11-13T05:08:36.406Z,4.78
2022-11-13T05:14:00.692Z,5.02
2022-11-13T05:19:23.209Z,5.26
2022-11-13T05:24:43.370Z,5.15
2022-11-13T05:30:03.940Z,4.86
2022-11-13T05:35:23.867Z,4.66
2022-11-13T05:40:44.115Z,4.48
2022-11-13T05:46:07.938Z,4.52
2022-11-13T05:51:30.852Z,5.07
2022-11-13T05:56:50.870Z,5.25
2022-11-13T06:02:11.256Z,4.93
2022-11-13T06:07:31.381Z,4.65
2022-11-13T06:12:51.092Z,4.64
2022-11-13T06:18:11.504Z,4.85
2022-11-13T06:23:36.682Z,4.94
2022-11-13T06:28:57.375Z,4.77
2022-11-13T06:34:17.527Z,4.68
2022-11-13T06:39:37.839Z,4.66
2022-11-13T06:44:58.288Z,4.66
2022-11-13T06:50:18.616Z,4.62
2022-11-13T06:55:47.532Z,4.69
2022-11-13T07:01:18.145Z,4.65
2022-11-13T07:06:40.540Z,4.46
2022-11-13T07:12:00.614Z,4.37
2022-11-13T07:17:20.664Z,4.56
2022-11-13T07:22:40.652Z,4.56
2022-11-13T07:28:00.717Z,4.82
2022-11-13T07:33:20.713Z,5.34
2022-11-13T07:38:40.693Z,5.57
2022-11-13T07:44:01.900Z,5.85
2022-11-13T07:49:22.785Z,5.92
2022-11-13T07:54:42.960Z,6.08
2022-11-13T08:00:03.790Z,6.37
2022-11-13T08:05:23.988Z,7.52
2022-11-13T08:10:43.885Z,8.35
2022-11-13T08:16:04.440Z,8.83
2022-11-13T08:21:24.912Z,9.20
2022-11-13T08:26:45.211Z,9.75
2022-11-13T08:32:05.823Z,10.25
2022-11-13T08:37:25.962Z,11.00
2022-11-13T08:42:45.926Z,10.32
2022-11-13T08:48:06.475Z,10.90
2022-11-13T08:53:26.618Z,11.42
2022-11-13T08:58:47.068Z,11.24
2022-11-13T09:04:08.297Z,11.97
2022-11-13T09:09:28.153Z,12.05
2022-11-13T09:14:48.287Z,12.51
2022-11-13T09:20:13.525Z,12.63
2022-11-13T09:25:37.789Z,12.88
2022-11-13T09:30:58.273Z,13.19
2022-11-13T09:36:18.453Z,13.61
2022-11-13T09:41:45.204Z,13.62
2022-11-13T09:47:10.283Z,14.07
2022-11-13T09:52:35.917Z,14.39
2022-11-13T09:58:04.958Z,14.68
2022-11-13T10:04:00.631Z,14.23
2022-11-13T10:09:54.351Z,15.16
2022-11-13T10:15:17.371Z,15.50
2022-11-13T10:20:43.347Z,15.82
2022-11-13T10:26:21.105Z,16.14
2022-11-13T10:31:49.660Z,16.06
2022-11-13T10:37:36.306Z,16.66
2022-11-13T10:43:14.521Z,16.65
2022-11-13T10:48:36.680Z,17.34
2022-11-13T10:53:59.015Z,17.23
2022-11-13T10:59:19.908Z,16.75
2022-11-13T11:04:40.222Z,16.93
2022-11-13T11:10:00.518Z,17.10
2022-11-13T11:15:27.419Z,17.66
2022-11-13T11:20:57.797Z,18.28
2022-11-13T11:26:26.754Z,17.98
2022-11-13T11:32:00.951Z,17.75
2022-11-13T11:37:25.175Z,17.70
2022-11-13T11:42:51.713Z,18.46
2022-11-13T11:48:26.010Z,18.69
2022-11-13T11:54:05.060Z,19.64
2022-11-13T11:59:55.429Z,19.89
2022-11-13T12:05:27.249Z,19.97
2022-11-13T12:11:22.096Z,19.02
2022-11-13T12:16:54.154Z,18.92
2022-11-13T12:22:21.342Z,19.50
2022-11-13T12:28:04.545Z,19.78
2022-11-13T12:33:30.811Z,20.00
2022-11-13T12:39:19.746Z,18.77
2022-11-13T12:44:50.195Z,18.50
2022-11-13T12:50:32.475Z,19.00
2022-11-13T12:55:59.296Z,19.28
2022-11-13T13:01:21.769Z,19.07
2022-11-13T13:07:09.034Z,18.76
2022-11-13T13:12:57.165Z,18.89
2022-11-13T13:18:17.568Z,19.05
2022-11-13T13:23:39.939Z,18.31
2022-11-13T13:29:21.384Z,18.41
2022-11-13T13:35:19.350Z,18.78
2022-11-13T13:40:57.695Z,18.77
2022-11-13T13:46:20.189Z,18.38
2022-11-13T13:51:46.449Z,17.47
2022-11-13T13:57:11.499Z,17.27
2022-11-13T14:02:31.585Z,17.34
2022-11-13T14:07:51.465Z,17.36
2022-11-13T14:13:13.555Z,17.64
2022-11-13T14:18:35.151Z,17.72
2022-11-13T14:23:55.273Z,17.16
2022-11-13T14:29:33.546Z,16.60
2022-11-13T14:34:56.628Z,16.04
2022-11-13T14:40:26.811Z,15.30
2022-11-13T14:45:59.337Z,15.00
2022-11-13T14:51:29.403Z,15.15
2022-11-13T14:56:49.463Z,15.29
2022-11-13T15:02:11.519Z,15.14
2022-11-13T15:07:34.088Z,14.95
2022-11-13T15:12:54.426Z,15.19
2022-11-13T15:18:19.732Z,15.27
2022-11-13T15:23:39.626Z,14.49
2022-11-13T15:28:59.631Z,13.36
2022-11-13T15:34:19.799Z,12.55
2022-11-13T15:39:40.140Z,12.04
2022-11-13T15:45:00.283Z,11.61
2022-11-13T15:50:20.576Z,11.14
2022-11-13T15:55:41.697Z,10.81
2022-11-13T16:01:02.019Z,10.53
2022-11-13T16:06:23.783Z,10.18
2022-11-13T16:11:44.156Z,10.02
2022-11-13T16:17:11.709Z,9.80
2022-11-13T16:22:31.695Z,9.84
2022-11-13T16:27:51.837Z,9.78
2022-11-13T16:33:12.576Z,9.76
2022-11-13T16:38:32.487Z,9.58
2022-11-13T16:43:52.347Z,9.37
2022-11-13T16:49:14.182Z,9.20
2022-11-13T16:54:34.119Z,8.85
2022-11-13T16:59:54.357Z,8.58
2022-11-13T17:05:17.960Z,8.61
2022-11-13T17:10:38.210Z,8.77
2022-11-13T17:16:00.814Z,8.59
2022-11-13T17:21:23.563Z,8.93
2022-11-13T17:26:43.788Z,8.48
2022-11-13T17:32:03.758Z,8.25
2022-11-13T17:37:25.358Z,8.04
2022-11-13T17:42:45.400Z,8.07
2022-11-13T17:48:05.572Z,8.01
2022-11-13T17:53:25.887Z,7.82
2022-11-13T17:58:46.755Z,7.63
2022-11-13T18:04:07.179Z,7.81
2022-11-13T18:09:27.577Z,8.19
2022-11-13T18:14:47.910Z,8.46
2022-11-13T18:20:08.628Z,8.49
2022-11-13T18:25:29.218Z,8.24
2022-11-13T18:30:55.076Z,8.16
2022-11-13T18:36:17.052Z,8.07
2022-11-13T18:41:37.265Z,8.47
2022-11-13T18:46:57.449Z,8.49
2022-11-13T18:52:17.784Z,8.37
2022-11-13T18:57:37.993Z,8.28
2022-11-13T19:02:58.063Z,8.13
2022-11-13T19:08:18.385Z,7.66
2022-11-13T19:13:41.058Z,7.23
2022-11-13T19:19:04.276Z,6.92
2022-11-13T19:24:24.570Z,6.84
2022-11-13T19:29:44.577Z,7.06
2022-11-13T19:35:05.042Z,6.92
2022-11-13T19:40:25.274Z,6.73
2022-11-13T19:45:45.318Z,6.75
2022-11-13T19:51:08.565Z,6.86
2022-11-13T19:56:28.896Z,7.15
2022-11-13T20:01:49.306Z,6.94
2022-11-13T20:07:09.541Z,7.02
2022-11-13T20:12:30.678Z,7.09
2022-11-13T20:17:50.873Z,7.02
2022-11-13T20:23:11.137Z,6.94
2022-11-13T20:28:32.383Z,6.87
2022-11-13T20:33:55.470Z,6.59
2022-11-13T20:39:15.565Z,6.55
2022-11-13T20:44:35.506Z,6.29
2022-11-13T20:49:55.457Z,6.16
2022-11-13T20:55:15.893Z,5.94
2022-11-13T21:00:35.984Z,5.68
2022-11-13T21:05:56.128Z,5.41
2022-11-13T21:11:19.046Z,5.33
2022-11-13T21:16:39.185Z,5.56
2022-11-13T21:21:59.146Z,5.56
2022-11-13T21:27:19.571Z,5.78
2022-11-13T21:32:39.895Z,5.85
2022-11-13T21:38:04.376Z,5.93
2022-11-13T21:43:25.027Z,5.94
2022-11-13T21:48:45.751Z,5.41
2022-11-13T21:54:06.945Z,4.94
2022-11-13T21:59:26.959Z,5.62
2022-11-13T22:04:46.945Z,5.65
2022-11-13T22:10:08.691Z,5.87
2022-11-13T22:15:28.893Z,5.94
2022-11-13T22:20:49.319Z,6.00
2022-11-13T22:26:14.867Z,6.29
2022-11-13T22:31:36.123Z,6.62
2022-11-13T22:36:56.108Z,6.76
2022-11-13T22:42:16.010Z,6.37
2022-11-13T22:47:38.132Z,6.36
2022-11-13T22:52:58.461Z,6.18
2022-11-13T22:58:18.401Z,5.92
2022-11-13T23:03:40.540Z,5.64
2022-11-13T23:09:01.103Z,5.76
2022-11-13T23:14:21.447Z,5.08
2022-11-13T23:19:41.376Z,4.75
2022-11-13T23:25:01.649Z,4.74
2022-11-13T23:30:21.439Z,4.73
2022-11-13T23:35:42.225Z,4.78
2022-11-13T23:41:02.614Z,4.53
2022-11-13T23:46:22.909Z,4.71
2022-11-13T23:51:42.899Z,4.68
2022-11-13T23:57:02.990Z,4.80
